createdAt,value
2016-08-04T00:00:11.013Z,965.22
2016-08-04T00:01:10.981Z,965.25
2016-08-04T00:02:10.954Z,965.25
2016-08-04T00:03:10.921Z,965.24
2016-08-04T00:04:10.892Z,965.21
2016-08-04T00:05:10.862Z,965.21
2016-08-04T00:06:10.831Z,965.21
2016-08-04T00:07:10.801Z,965.18
2016-08-04T00:08:10.771Z,965.19
2016-08-04T00:09:10.738Z,965.15
2016-08-04T00:10:10.708Z,965.17
2016-08-04T00:11:10.677Z,965.2
2016-08-04T00:12:10.651Z,965.2
2016-08-04T00:13:10.617Z,965.14
2016-08-04T00:14:10.584Z,965.2
2016-08-04T00:15:10.555Z,965.16
2016-08-04T00:16:10.523Z,965.17
2016-08-04T00:17:10.493Z,965.19
2016-08-04T00:18:10.463Z,965.15
2016-08-04T00:19:10.432Z,965.15
2016-08-04T00:20:10.400Z,965.14
2016-08-04T00:21:10.371Z,965.13
2016-08-04T00:22:10.339Z,965.1
2016-08-04T00:23:10.310Z,965.14
2016-08-04T00:24:10.279Z,965.1
2016-08-04T00:25:10.247Z,965.1
2016-08-04T00:26:10.218Z,965.13
2016-08-04T00:27:10.187Z,965.12
2016-08-04T00:28:10.155Z,965.16
2016-08-04T00:29:10.124Z,965.13
2016-08-04T00:30:10.099Z,965.13
2016-08-04T00:31:10.062Z,965.15
2016-08-04T00:32:10.034Z,965.17
2016-08-04T00:33:10.001Z,965.15
2016-08-04T00:34:09.970Z,965.18
2016-08-04T00:35:09.941Z,965.17
2016-08-04T00:36:09.909Z,965.14
2016-08-04T00:37:09.878Z,965.19
2016-08-04T00:38:09.846Z,965.17
2016-08-04T00:39:09.817Z,965.18
2016-08-04T00:40:09.787Z,965.19
2016-08-04T00:41:09.754Z,965.14
2016-08-04T00:42:09.726Z,965.13
2016-08-04T00:43:09.692Z,965.09
2016-08-04T00:44:09.661Z,965.2
2016-08-04T00:45:09.631Z,965.17
2016-08-04T00:46:09.601Z,965.18
2016-08-04T00:47:09.568Z,965.19
2016-08-04T00:48:09.540Z,965.18
2016-08-04T00:49:09.510Z,965.14
2016-08-04T00:50:09.476Z,965.12
2016-08-04T00:51:09.455Z,965.14
2016-08-04T00:52:09.415Z,965.14
2016-08-04T00:53:09.385Z,965.14
2016-08-04T00:54:09.353Z,965.16
2016-08-04T00:55:09.322Z,965.12
2016-08-04T00:56:09.292Z,965.15
2016-08-04T00:57:09.259Z,965.16
2016-08-04T00:58:09.230Z,965.14
2016-08-04T00:59:09.200Z,965.14
2016-08-04T01:00:09.169Z,965.17
2016-08-04T01:01:09.139Z,965.17
2016-08-04T01:02:09.106Z,965.12
2016-08-04T01:03:09.074Z,965.14
2016-08-04T01:04:09.045Z,965.14
2016-08-04T01:05:09.014Z,965.17
2016-08-04T01:06:08.983Z,965.15
2016-08-04T01:07:08.950Z,965.14
2016-08-04T01:08:08.922Z,965.14
2016-08-04T01:09:08.890Z,965.12
2016-08-04T01:10:08.858Z,965.12
2016-08-04T01:11:08.832Z,965.13
2016-08-04T01:12:08.798Z,965.12
2016-08-04T01:13:08.771Z,965.18
2016-08-04T01:14:08.733Z,965.15
2016-08-04T01:15:08.702Z,965.16
2016-08-04T01:16:08.673Z,965.16
2016-08-04T01:17:08.642Z,965.15
2016-08-04T01:18:08.610Z,965.18
2016-08-04T01:19:08.583Z,965.17
2016-08-04T01:20:08.547Z,965.13
2016-08-04T01:21:08.516Z,965.14
2016-08-04T01:22:08.484Z,965.13
2016-08-04T01:23:08.454Z,965.15
2016-08-04T01:24:08.423Z,965.15
2016-08-04T01:25:08.391Z,965.13
2016-08-04T01:26:08.361Z,965.15
2016-08-04T01:27:08.329Z,965.19
2016-08-04T01:28:08.300Z,965.15
2016-08-04T01:29:08.267Z,965.14
2016-08-04T01:30:08.235Z,965.15
2016-08-04T01:31:08.205Z,965.11
2016-08-04T01:32:08.174Z,965.15
2016-08-04T01:33:08.149Z,965.13
2016-08-04T01:34:08.110Z,965.13
2016-08-04T01:35:08.080Z,965.09
2016-08-04T01:36:08.048Z,965.08
2016-08-04T01:37:08.015Z,965.07
2016-08-04T01:38:07.986Z,965.07
2016-08-04T01:39:07.957Z,965.05
2016-08-04T01:40:07.924Z,965.02
2016-08-04T01:41:07.892Z,965.05
2016-08-04T01:42:07.863Z,965.05
2016-08-04T01:43:07.830Z,965.01
2016-08-04T01:44:07.799Z,964.99
2016-08-04T01:45:07.769Z,964.99
2016-08-04T01:46:07.735Z,964.97
2016-08-04T01:47:07.705Z,964.97
2016-08-04T01:48:07.674Z,964.93
2016-08-04T01:49:07.642Z,964.93
2016-08-04T01:50:07.611Z,964.91
2016-08-04T01:51:07.577Z,964.88
2016-08-04T01:52:07.549Z,964.89
2016-08-04T01:53:07.517Z,964.84
2016-08-04T01:54:07.486Z,964.85
2016-08-04T01:55:07.454Z,964.79
2016-08-04T01:56:07.423Z,964.82
2016-08-04T01:57:07.393Z,964.81
2016-08-04T01:58:07.361Z,964.84
2016-08-04T01:59:07.328Z,964.81
2016-08-04T02:00:07.296Z,964.82
2016-08-04T02:01:07.269Z,964.79
2016-08-04T02:02:07.233Z,964.81
2016-08-04T02:03:07.203Z,964.81
2016-08-04T02:04:07.172Z,964.82
2016-08-04T02:06:07.108Z,964.85
2016-08-04T02:07:07.080Z,964.83
2016-08-04T02:08:07.046Z,964.85
2016-08-04T02:09:07.014Z,964.87
2016-08-04T02:10:06.984Z,964.87
2016-08-04T02:11:06.951Z,964.89
2016-08-04T02:12:06.920Z,964.88
2016-08-04T02:13:06.888Z,964.9
2016-08-04T02:14:06.857Z,964.87
2016-08-04T02:15:06.826Z,964.9
2016-08-04T02:16:06.793Z,964.88
2016-08-04T02:17:06.763Z,964.92
2016-08-04T02:18:06.730Z,964.96
2016-08-04T02:19:06.699Z,964.92
2016-08-04T02:20:06.666Z,964.89
2016-08-04T02:21:06.638Z,964.92
2016-08-04T02:22:06.605Z,964.9
2016-08-04T02:23:06.574Z,964.9
2016-08-04T02:24:06.541Z,964.86
2016-08-04T02:25:06.508Z,964.89
2016-08-04T02:26:06.477Z,964.91
2016-08-04T02:27:06.449Z,964.94
2016-08-04T02:28:06.417Z,964.92
2016-08-04T02:29:06.385Z,964.91
2016-08-04T02:30:06.354Z,964.91
2016-08-04T02:31:06.319Z,964.89
2016-08-04T02:32:06.292Z,964.89
2016-08-04T02:33:06.258Z,964.91
2016-08-04T02:34:06.226Z,964.9
2016-08-04T02:35:06.195Z,964.92
2016-08-04T02:36:06.163Z,964.86
2016-08-04T02:37:06.132Z,964.87
2016-08-04T02:38:06.099Z,964.89
2016-08-04T02:39:06.067Z,964.86
2016-08-04T02:40:06.037Z,964.9
2016-08-04T02:41:06.006Z,964.89
2016-08-04T02:42:05.970Z,964.83
2016-08-04T02:43:05.942Z,964.85
2016-08-04T02:44:05.910Z,964.86
2016-08-04T02:45:05.877Z,964.84
2016-08-04T02:46:05.848Z,964.89
2016-08-04T02:47:05.813Z,964.83
2016-08-04T02:48:05.784Z,964.81
2016-08-04T02:49:05.752Z,964.82
2016-08-04T02:50:05.718Z,964.8
2016-08-04T02:51:05.686Z,964.85
2016-08-04T02:52:05.657Z,964.82
2016-08-04T02:53:05.623Z,964.84
2016-08-04T02:54:05.591Z,964.81
2016-08-04T02:55:05.560Z,964.84
2016-08-04T02:56:05.531Z,964.79
2016-08-04T02:57:05.495Z,964.82
2016-08-04T02:58:05.467Z,964.8
2016-08-04T02:59:05.434Z,964.8
2016-08-04T03:00:05.402Z,964.84
2016-08-04T03:01:05.370Z,964.8
2016-08-04T03:02:05.339Z,964.83
2016-08-04T03:03:05.308Z,964.82
2016-08-04T03:04:05.273Z,964.83
2016-08-04T03:05:05.244Z,964.84
2016-08-04T03:06:05.210Z,964.85
2016-08-04T03:07:05.180Z,964.84
2016-08-04T03:08:05.147Z,964.84
2016-08-04T03:09:05.116Z,964.86
2016-08-04T03:10:05.084Z,964.85
2016-08-04T03:11:05.050Z,964.89
2016-08-04T03:12:05.018Z,964.88
2016-08-04T03:13:04.987Z,964.87
2016-08-04T03:14:04.958Z,964.87
2016-08-04T03:15:04.923Z,964.87
2016-08-04T03:16:04.892Z,964.88
2016-08-04T03:17:04.860Z,964.89
2016-08-04T03:18:04.829Z,964.81
2016-08-04T03:19:04.797Z,964.84
2016-08-04T03:20:04.763Z,964.78
2016-08-04T03:21:04.733Z,964.82
2016-08-04T03:22:04.702Z,964.8
2016-08-04T03:23:04.669Z,964.82
2016-08-04T03:24:04.639Z,964.78
2016-08-04T03:25:04.610Z,964.79
2016-08-04T03:26:04.572Z,964.8
2016-08-04T03:27:04.541Z,964.8
2016-08-04T03:28:04.509Z,964.81
2016-08-04T03:29:04.478Z,964.79
2016-08-04T03:30:04.446Z,964.79
2016-08-04T03:31:04.414Z,964.83
2016-08-04T03:32:04.382Z,964.87
2016-08-04T03:33:04.349Z,964.87
2016-08-04T03:34:04.317Z,964.88
2016-08-04T03:35:04.286Z,964.87
2016-08-04T03:36:04.255Z,964.87
2016-08-04T03:37:04.222Z,964.85
2016-08-04T03:38:04.189Z,964.83
2016-08-04T03:39:04.159Z,964.83
2016-08-04T03:40:04.125Z,964.84
2016-08-04T03:41:04.094Z,964.82
2016-08-04T03:42:04.062Z,964.86
2016-08-04T03:43:04.030Z,964.87
2016-08-04T03:44:04.000Z,964.92
2016-08-04T03:45:03.966Z,964.94
2016-08-04T03:46:03.933Z,964.9
2016-08-04T03:47:03.906Z,964.89
2016-08-04T03:48:03.870Z,964.92
2016-08-04T03:49:03.837Z,964.92
2016-08-04T03:50:03.806Z,964.94
2016-08-04T03:51:03.773Z,964.91
2016-08-04T03:52:03.741Z,964.95
2016-08-04T03:53:03.709Z,964.95
2016-08-04T03:54:03.677Z,964.95
2016-08-04T03:55:03.644Z,964.94
2016-08-04T03:56:03.615Z,964.95
2016-08-04T03:57:03.581Z,964.95
2016-08-04T03:58:03.550Z,964.93
2016-08-04T03:59:03.517Z,964.97
2016-08-04T04:00:03.488Z,964.96
2016-08-04T04:01:03.455Z,964.95
2016-08-04T04:02:03.422Z,964.95
2016-08-04T04:03:03.391Z,964.97
2016-08-04T04:04:03.357Z,964.94
2016-08-04T04:05:03.326Z,964.92
2016-08-04T04:06:03.293Z,964.91
2016-08-04T04:07:03.262Z,964.88
2016-08-04T04:08:03.230Z,964.86
2016-08-04T04:09:03.198Z,964.86
2016-08-04T04:10:03.166Z,964.86
2016-08-04T04:11:03.134Z,964.83
2016-08-04T04:12:03.105Z,964.85
2016-08-04T04:13:03.068Z,964.81
2016-08-04T04:14:03.036Z,964.84
2016-08-04T04:15:03.019Z,964.83
2016-08-04T04:16:02.972Z,964.86
2016-08-04T04:17:02.940Z,964.88
2016-08-04T04:18:02.908Z,964.87
2016-08-04T04:19:02.874Z,964.87
2016-08-04T04:20:02.845Z,964.84
2016-08-04T04:21:02.811Z,964.81
2016-08-04T04:22:02.780Z,964.81
2016-08-04T04:23:02.745Z,964.77
2016-08-04T04:24:02.718Z,964.8
2016-08-04T04:25:02.682Z,964.79
2016-08-04T04:26:02.652Z,964.78
2016-08-04T04:27:02.620Z,964.77
2016-08-04T04:28:02.586Z,964.76
2016-08-04T04:29:02.559Z,964.76
2016-08-04T04:30:02.524Z,964.74
2016-08-04T04:31:02.492Z,964.77
2016-08-04T04:32:02.459Z,964.73
2016-08-04T04:33:02.426Z,964.73
2016-08-04T04:34:02.395Z,964.68
2016-08-04T04:35:02.363Z,964.74
2016-08-04T04:36:02.331Z,964.72
2016-08-04T04:37:02.304Z,964.74
2016-08-04T04:38:02.267Z,964.74
2016-08-04T04:39:02.235Z,964.73
2016-08-04T04:40:02.205Z,964.69
2016-08-04T04:41:02.172Z,964.73
2016-08-04T04:42:02.139Z,964.77
2016-08-04T04:43:02.109Z,964.72
2016-08-04T04:44:02.075Z,964.74
2016-08-04T04:45:02.043Z,964.75
2016-08-04T04:46:02.011Z,964.76
2016-08-04T04:47:01.980Z,964.72
2016-08-04T04:48:01.947Z,964.73
2016-08-04T04:49:01.918Z,964.7
2016-08-04T04:50:01.883Z,964.68
2016-08-04T04:51:01.851Z,964.66
2016-08-04T04:52:01.819Z,964.7
2016-08-04T04:53:01.788Z,964.68
2016-08-04T04:54:01.755Z,964.7
2016-08-04T04:55:01.724Z,964.69
2016-08-04T04:56:01.693Z,964.75
2016-08-04T04:57:01.661Z,964.76
2016-08-04T04:58:01.629Z,964.8
2016-08-04T04:59:01.599Z,964.79
2016-08-04T05:00:01.566Z,964.74
2016-08-04T05:01:01.535Z,964.77
2016-08-04T05:02:01.503Z,964.78
2016-08-04T05:03:01.474Z,964.79
2016-08-04T05:04:01.443Z,964.83
2016-08-04T05:05:01.411Z,964.79
2016-08-04T05:06:01.381Z,964.83
2016-08-04T05:07:01.350Z,964.8
2016-08-04T05:08:01.319Z,964.77
2016-08-04T05:09:01.290Z,964.82
2016-08-04T05:10:01.261Z,964.77
2016-08-04T05:11:01.232Z,964.8
2016-08-04T05:12:01.201Z,964.8
2016-08-04T05:13:01.172Z,964.85
2016-08-04T05:14:01.147Z,964.82
2016-08-04T05:15:01.114Z,964.84
2016-08-04T05:16:01.082Z,964.84
2016-08-04T05:17:01.056Z,964.84
2016-08-04T05:18:01.029Z,964.84
2016-08-04T05:19:00.999Z,964.87
2016-08-04T05:20:00.971Z,964.91
2016-08-04T05:21:00.942Z,964.88
2016-08-04T05:22:00.915Z,964.95
2016-08-04T05:23:00.888Z,964.98
2016-08-04T05:24:00.860Z,964.97
2016-08-04T05:25:00.833Z,964.96
2016-08-04T05:26:00.809Z,965.04
2016-08-04T05:27:00.778Z,965.07
2016-08-04T05:28:00.755Z,965.05
2016-08-04T05:29:00.727Z,965.08
2016-08-04T05:30:00.700Z,965.11
2016-08-04T05:31:00.675Z,965.08
2016-08-04T05:32:00.647Z,965.04
2016-08-04T05:33:00.625Z,965.07
2016-08-04T05:34:00.600Z,965.09
2016-08-04T05:35:00.572Z,965.06
2016-08-04T05:37:00.521Z,965.08
2016-08-04T05:38:00.495Z,965.11
2016-08-04T05:39:00.473Z,965.13
2016-08-04T05:40:00.447Z,965.09
2016-08-04T05:41:00.422Z,965.06
2016-08-04T05:42:00.398Z,965.07
2016-08-04T05:43:00.375Z,965.1
2016-08-04T05:44:00.350Z,965.08
2016-08-04T05:45:00.325Z,965.08
2016-08-04T05:46:00.302Z,965.09
2016-08-04T05:47:00.280Z,965.13
2016-08-04T05:48:00.254Z,965.1
2016-08-04T05:49:00.231Z,965.12
2016-08-04T05:50:00.210Z,965.11
2016-08-04T05:52:00.162Z,965.15
2016-08-04T05:53:00.141Z,965.15
2016-08-04T05:54:00.119Z,965.09
2016-08-04T05:55:00.097Z,965.12
2016-08-04T05:56:00.070Z,965.13
2016-08-04T05:57:00.050Z,965.12
2016-08-04T05:58:00.030Z,965.09
2016-08-04T05:59:00.003Z,965.09
2016-08-04T05:59:59.982Z,965.15
2016-08-04T06:00:59.960Z,965.12
2016-08-04T06:01:59.940Z,965.16
2016-08-04T06:02:59.927Z,965.13
2016-08-04T06:03:59.896Z,965.12
2016-08-04T06:04:59.874Z,965.09
2016-08-04T06:05:59.854Z,965.09
2016-08-04T06:06:59.831Z,965.09
2016-08-04T06:07:59.811Z,965.05
2016-08-04T06:08:59.790Z,965.04
2016-08-04T06:09:59.769Z,965.05
2016-08-04T06:10:59.747Z,965.06
2016-08-04T06:11:59.726Z,965.05
2016-08-04T06:12:59.708Z,965.08
2016-08-04T06:13:59.688Z,965.08
2016-08-04T06:14:59.663Z,965.07
2016-08-04T06:15:59.643Z,965.11
2016-08-04T06:16:59.623Z,965.04
2016-08-04T06:17:59.602Z,965.09
2016-08-04T06:18:59.584Z,965.1
2016-08-04T06:19:59.561Z,965.08
2016-08-04T06:20:59.546Z,965.04
2016-08-04T06:21:59.522Z,965.08
2016-08-04T06:22:59.500Z,965.09
2016-08-04T06:23:59.482Z,965.1
2016-08-04T06:24:59.463Z,965.13
2016-08-04T06:25:59.442Z,965.12
2016-08-04T06:26:59.423Z,965.1
2016-08-04T06:27:59.402Z,965.12
2016-08-04T06:28:59.380Z,965.1
2016-08-04T06:29:59.362Z,965.18
2016-08-04T06:30:59.341Z,965.16
2016-08-04T06:31:59.322Z,965.2
2016-08-04T06:32:59.303Z,965.23
2016-08-04T06:33:59.282Z,965.28
2016-08-04T06:34:59.263Z,965.35
2016-08-04T06:35:59.244Z,965.36
2016-08-04T06:36:59.230Z,965.27
2016-08-04T06:37:59.203Z,965.25
2016-08-04T06:38:59.186Z,965.26
2016-08-04T06:39:59.164Z,965.24
2016-08-04T06:40:59.147Z,965.21
2016-08-04T06:41:59.126Z,965.19
2016-08-04T06:42:59.105Z,965.19
2016-08-04T06:43:59.090Z,965.19
2016-08-04T06:44:59.069Z,965.17
2016-08-04T06:45:59.050Z,965.15
2016-08-04T06:46:59.030Z,965.16
2016-08-04T06:47:59.010Z,965.15
2016-08-04T06:48:58.995Z,965.18
2016-08-04T06:49:58.977Z,965.17
2016-08-04T06:50:58.956Z,965.19
2016-08-04T06:51:58.938Z,965.19
2016-08-04T06:52:58.918Z,965.23
2016-08-04T06:53:58.900Z,965.22
2016-08-04T06:54:58.882Z,965.22
2016-08-04T06:55:58.864Z,965.22
2016-08-04T06:56:58.846Z,965.2
2016-08-04T06:57:58.827Z,965.19
2016-08-04T06:58:58.809Z,965.15
2016-08-04T06:59:58.790Z,965.16
2016-08-04T07:00:58.775Z,965.18
2016-08-04T07:01:58.755Z,965.17
2016-08-04T07:02:58.739Z,965.2
2016-08-04T07:03:58.720Z,965.19
2016-08-04T07:04:58.700Z,965.2
2016-08-04T07:05:58.684Z,965.2
2016-08-04T07:06:58.666Z,965.19
2016-08-04T07:07:58.650Z,965.18
2016-08-04T07:08:58.632Z,965.16
2016-08-04T07:09:58.616Z,965.11
2016-08-04T07:10:58.600Z,965.08
2016-08-04T07:11:58.582Z,965.09
2016-08-04T07:12:58.566Z,965.1
2016-08-04T07:13:58.546Z,965.11
2016-08-04T07:14:58.533Z,965.14
2016-08-04T07:15:58.515Z,965.14
2016-08-04T07:16:58.499Z,965.1
2016-08-04T07:17:58.483Z,965.15
2016-08-04T07:18:58.466Z,965.14
2016-08-04T07:19:58.449Z,965.13
2016-08-04T07:20:58.435Z,965.09
2016-08-04T07:21:58.419Z,965.09
2016-08-04T07:22:58.404Z,965.09
2016-08-04T07:23:58.387Z,965.11
2016-08-04T07:24:58.372Z,965.13
2016-08-04T07:25:58.356Z,965.14
2016-08-04T07:26:58.342Z,965.15
2016-08-04T07:27:58.328Z,965.11
2016-08-04T07:28:58.311Z,965.12
2016-08-04T07:29:58.296Z,965.12
2016-08-04T07:30:58.279Z,965.14
2016-08-04T07:31:58.273Z,965.14
2016-08-04T07:32:58.255Z,965.15
2016-08-04T07:33:58.233Z,965.14
2016-08-04T07:34:58.220Z,965.08
2016-08-04T07:35:58.205Z,965.1
2016-08-04T07:36:58.193Z,965.11
2016-08-04T07:37:58.174Z,965.15
2016-08-04T07:38:58.160Z,965.13
2016-08-04T07:39:58.147Z,965.15
2016-08-04T07:40:58.131Z,965.12
2016-08-04T07:41:58.117Z,965.14
2016-08-04T07:42:58.102Z,965.13
2016-08-04T07:43:58.087Z,965.1
2016-08-04T07:44:58.073Z,965.11
2016-08-04T07:45:58.058Z,965.14
2016-08-04T07:46:58.101Z,965.12
2016-08-04T07:47:58.030Z,965.11
2016-08-04T07:48:58.017Z,965.13
2016-08-04T07:49:58.003Z,965.15
2016-08-04T07:50:57.989Z,965.13
2016-08-04T07:51:57.976Z,965.14
2016-08-04T07:52:57.960Z,965.12
2016-08-04T07:53:57.947Z,965.17
2016-08-04T07:54:57.932Z,965.16
2016-08-04T07:55:57.920Z,965.13
2016-08-04T07:56:57.908Z,965.1
2016-08-04T07:57:57.894Z,965.12
2016-08-04T07:58:57.881Z,965.1
2016-08-04T07:59:57.868Z,965.11
2016-08-04T08:00:57.855Z,965.12
2016-08-04T08:01:57.842Z,965.14
2016-08-04T08:02:57.829Z,965.14
2016-08-04T08:03:57.818Z,965.13
2016-08-04T08:04:57.804Z,965.17
2016-08-04T08:05:57.792Z,965.2
2016-08-04T08:06:57.780Z,965.21
2016-08-04T08:07:57.772Z,965.19
2016-08-04T08:08:57.756Z,965.23
2016-08-04T08:09:57.745Z,965.25
2016-08-04T08:10:57.732Z,965.31
2016-08-04T08:11:57.719Z,965.31
2016-08-04T08:12:57.710Z,965.23
2016-08-04T08:13:57.697Z,965.2
2016-08-04T08:14:57.683Z,965.04
2016-08-04T08:15:57.673Z,965.14
2016-08-04T08:16:57.660Z,965.23
2016-08-04T08:17:57.647Z,965.32
2016-08-04T08:18:57.636Z,965.09
2016-08-04T08:19:57.625Z,965.31
2016-08-04T08:20:57.612Z,965.06
2016-08-04T08:21:57.600Z,965.22
2016-08-04T08:22:57.588Z,965.18
2016-08-04T08:23:57.578Z,965.13
2016-08-04T08:24:57.565Z,965.1
2016-08-04T08:25:57.552Z,965
2016-08-04T08:26:57.541Z,965.07
2016-08-04T08:27:57.529Z,965.24
2016-08-04T08:28:57.515Z,965.16
2016-08-04T08:29:57.504Z,965.95
2016-08-04T08:30:57.496Z,965.81
2016-08-04T08:31:57.479Z,965.87
2016-08-04T08:32:57.467Z,965.17
2016-08-04T08:33:57.452Z,966.02
2016-08-04T08:34:57.441Z,965.19
2016-08-04T08:35:57.430Z,964.78
2016-08-04T08:36:57.419Z,964.88
2016-08-04T08:37:57.407Z,966.05
2016-08-04T08:38:57.395Z,965.58
2016-08-04T08:39:57.382Z,964.87
2016-08-04T08:40:57.370Z,964.86
2016-08-04T08:41:57.358Z,965
2016-08-04T08:42:57.348Z,965.64
2016-08-04T08:43:57.336Z,965.35
2016-08-04T08:44:57.322Z,965.73
2016-08-04T08:45:57.311Z,965.74
2016-08-04T08:46:57.297Z,965.74
2016-08-04T08:47:57.287Z,965.53
2016-08-04T08:48:57.276Z,965.58
2016-08-04T08:49:57.265Z,965.35
2016-08-04T08:50:57.251Z,965.42
2016-08-04T08:51:57.241Z,965.63
2016-08-04T08:52:57.229Z,965.57
2016-08-04T08:53:57.218Z,965.33
2016-08-04T08:54:57.205Z,965.55
2016-08-04T08:55:57.196Z,965.42
2016-08-04T08:56:57.186Z,965.51
2016-08-04T08:57:57.174Z,965.52
2016-08-04T08:58:57.165Z,965.5
2016-08-04T08:59:57.153Z,965.49
2016-08-04T09:00:57.141Z,965.38
2016-08-04T09:01:57.132Z,965.31
2016-08-04T09:02:57.121Z,965.41
2016-08-04T09:03:57.111Z,965.41
2016-08-04T09:04:57.101Z,965.44
2016-08-04T09:05:57.091Z,965.34
2016-08-04T09:06:57.081Z,965.29
2016-08-04T09:07:57.071Z,965.29
2016-08-04T09:08:57.073Z,965.22
2016-08-04T09:09:57.051Z,965.17
2016-08-04T09:10:57.041Z,965.16
2016-08-04T09:11:57.041Z,965.17
2016-08-04T09:12:57.021Z,965.12
2016-08-04T09:13:57.014Z,965.02
2016-08-04T09:14:57.005Z,964.94
2016-08-04T09:15:56.995Z,964.94
2016-08-04T09:16:57.009Z,964.89
2016-08-04T09:17:56.982Z,964.79
2016-08-04T09:18:56.967Z,964.72
2016-08-04T09:19:56.957Z,964.64
2016-08-04T09:20:56.947Z,964.57
2016-08-04T09:21:56.941Z,964.52
2016-08-04T09:22:56.934Z,964.5
2016-08-04T09:23:56.921Z,964.46
2016-08-04T09:24:56.914Z,964.45
2016-08-04T09:25:56.905Z,964.5
2016-08-04T09:26:56.896Z,964.55
2016-08-04T09:27:56.888Z,964.55
2016-08-04T09:28:56.878Z,964.54
2016-08-04T09:29:56.871Z,964.62
2016-08-04T09:30:56.862Z,964.71
2016-08-04T09:31:56.854Z,964.81
2016-08-04T09:32:56.853Z,964.76
2016-08-04T09:33:56.838Z,964.85
2016-08-04T09:34:56.831Z,964.97
2016-08-04T09:35:56.821Z,964.99
2016-08-04T09:36:56.813Z,965.07
2016-08-04T09:37:56.806Z,965.11
2016-08-04T09:38:56.796Z,965.13
2016-08-04T09:39:56.791Z,965.08
2016-08-04T09:40:56.784Z,965.16
2016-08-04T09:41:56.775Z,965.23
2016-08-04T09:42:56.767Z,965.3
2016-08-04T09:43:56.758Z,965.26
2016-08-04T09:44:56.753Z,965.23
2016-08-04T09:45:56.743Z,965.4
2016-08-04T09:46:56.738Z,965.46
2016-08-04T09:47:56.729Z,965.54
2016-08-04T09:48:56.722Z,965.61
2016-08-04T09:49:56.717Z,965.58
2016-08-04T09:50:56.707Z,965.49
2016-08-04T09:52:56.702Z,965.61
2016-08-04T09:53:56.685Z,965.75
2016-08-04T09:54:56.678Z,965.71
2016-08-04T09:55:56.672Z,965.85
2016-08-04T09:56:56.663Z,965.91
2016-08-04T09:57:56.656Z,965.89
2016-08-04T09:58:56.646Z,965.91
2016-08-04T09:59:56.640Z,965.86
2016-08-04T10:00:56.633Z,965.69
2016-08-04T10:01:56.624Z,965.71
2016-08-04T10:02:56.617Z,965.41
2016-08-04T10:03:56.608Z,965.17
2016-08-04T10:04:56.601Z,965.01
2016-08-04T10:05:56.595Z,965.03
2016-08-04T10:07:56.580Z,964.95
2016-08-04T10:08:56.569Z,964.91
2016-08-04T10:09:56.563Z,964.86
2016-08-04T10:10:56.557Z,964.84
2016-08-04T10:11:56.554Z,964.86
2016-08-04T10:12:56.538Z,964.84
2016-08-04T10:13:56.531Z,964.76
2016-08-04T10:14:56.523Z,964.83
2016-08-04T10:15:56.514Z,964.79
2016-08-04T10:16:56.506Z,964.83
2016-08-04T10:17:56.496Z,964.77
2016-08-04T10:18:56.487Z,964.81
2016-08-04T10:19:56.477Z,964.83
2016-08-04T10:20:56.470Z,964.96
2016-08-04T10:21:56.462Z,965.52
2016-08-04T10:22:56.454Z,966.71
2016-08-04T10:23:56.445Z,967.15
2016-08-04T10:24:56.436Z,967.22
2016-08-04T10:25:56.425Z,967.2
2016-08-04T10:26:56.417Z,967.5
2016-08-04T10:27:56.408Z,967.61
2016-08-04T10:28:56.399Z,967.39
2016-08-04T10:29:56.391Z,967.52
2016-08-04T10:30:56.381Z,967.51
2016-08-04T10:31:56.372Z,967.44
2016-08-04T10:32:56.363Z,967.41
2016-08-04T10:33:56.353Z,967.28
2016-08-04T10:34:56.346Z,966.97
2016-08-04T10:35:56.337Z,967.09
2016-08-04T10:36:56.326Z,967.16
2016-08-04T10:37:56.317Z,967.01
2016-08-04T10:38:56.309Z,966.7
2016-08-04T10:39:56.301Z,966.74
2016-08-04T10:40:56.287Z,966.57
2016-08-04T10:41:56.285Z,966.4
2016-08-04T10:42:56.274Z,966.26
2016-08-04T10:43:56.263Z,966.12
2016-08-04T10:44:56.254Z,966.02
2016-08-04T10:45:56.247Z,965.9
2016-08-04T10:46:56.239Z,965.84
2016-08-04T10:47:56.238Z,965.74
2016-08-04T10:48:56.221Z,965.71
2016-08-04T10:49:56.214Z,965.58
2016-08-04T10:50:56.203Z,965.7
2016-08-04T10:51:56.195Z,965.81
2016-08-04T10:52:56.186Z,965.95
2016-08-04T10:53:56.178Z,966.06
2016-08-04T10:54:56.170Z,966.05
2016-08-04T10:55:56.170Z,966.06
2016-08-04T10:56:56.157Z,966.16
2016-08-04T10:57:56.144Z,965.72
2016-08-04T10:58:56.136Z,965.41
2016-08-04T10:59:56.127Z,965.32
2016-08-04T11:00:56.119Z,965.18
2016-08-04T11:01:56.109Z,965.03
2016-08-04T11:02:56.099Z,964.89
2016-08-04T11:03:56.092Z,964.66
2016-08-04T11:04:56.082Z,964.55
2016-08-04T11:05:56.070Z,964.46
2016-08-04T11:06:56.062Z,964.49
2016-08-04T11:07:56.055Z,964.4
2016-08-04T11:08:56.043Z,964.18
2016-08-04T11:09:56.035Z,964.27
2016-08-04T11:10:56.021Z,964.17
2016-08-04T11:11:56.011Z,964.14
2016-08-04T11:12:56.001Z,964.06
2016-08-04T11:13:55.988Z,964.01
2016-08-04T11:14:55.976Z,964.01
2016-08-04T11:15:55.966Z,964.07
2016-08-04T11:16:55.953Z,964.08
2016-08-04T11:17:55.941Z,964.18
2016-08-04T11:18:55.931Z,964.24
2016-08-04T11:19:55.918Z,964.3
2016-08-04T11:20:55.904Z,964.31
2016-08-04T11:21:55.893Z,964.31
2016-08-04T11:22:55.880Z,964.21
2016-08-04T11:23:55.868Z,964.04
2016-08-04T11:24:55.854Z,963.75
2016-08-04T11:25:55.838Z,963.68
2016-08-04T11:26:55.825Z,963.61
2016-08-04T11:27:55.811Z,963.55
2016-08-04T11:28:55.795Z,963.58
2016-08-04T11:29:55.779Z,963.55
2016-08-04T11:30:55.765Z,963.54
2016-08-04T11:31:55.746Z,963.53
2016-08-04T11:32:55.730Z,963.47
2016-08-04T11:33:55.721Z,963.48
2016-08-04T11:34:55.698Z,963.48
2016-08-04T11:35:55.678Z,963.41
2016-08-04T11:36:55.669Z,963.38
2016-08-04T11:37:55.643Z,963.36
2016-08-04T11:38:55.625Z,963.32
2016-08-04T11:39:55.607Z,963.32
2016-08-04T11:40:55.588Z,963.27
2016-08-04T11:41:55.571Z,963.24
2016-08-04T11:42:55.549Z,963.25
2016-08-04T11:43:55.532Z,963.21
2016-08-04T11:44:55.514Z,963.21
2016-08-04T11:45:55.496Z,963.2
2016-08-04T11:46:55.474Z,963.22
2016-08-04T11:47:55.456Z,963.2
2016-08-04T11:48:55.435Z,963.15
2016-08-04T11:49:55.415Z,963.17
2016-08-04T11:50:55.398Z,963.13
2016-08-04T11:51:55.375Z,963.07
2016-08-04T11:52:55.355Z,963.07
2016-08-04T11:53:55.337Z,963.03
2016-08-04T11:54:55.318Z,963.02
2016-08-04T11:55:55.294Z,963
2016-08-04T11:56:55.274Z,962.98
2016-08-04T11:57:55.254Z,962.99
2016-08-04T11:58:55.233Z,963.01
2016-08-04T11:59:55.211Z,963.04
2016-08-04T12:00:55.191Z,963.03
2016-08-04T12:01:55.170Z,963.03
2016-08-04T12:02:55.148Z,963.01
2016-08-04T12:03:55.127Z,962.96
2016-08-04T12:04:55.107Z,962.94
2016-08-04T12:05:55.084Z,962.94
2016-08-04T12:06:55.067Z,962.92
2016-08-04T12:07:55.042Z,962.92
2016-08-04T12:08:55.019Z,962.92
2016-08-04T12:09:54.997Z,962.9
2016-08-04T12:10:54.976Z,962.88
2016-08-04T12:11:54.954Z,962.85
2016-08-04T12:12:54.933Z,962.84
2016-08-04T12:13:54.911Z,962.83
2016-08-04T12:14:54.894Z,962.84
2016-08-04T12:15:54.865Z,962.76
2016-08-04T12:16:54.846Z,962.78
2016-08-04T12:17:54.823Z,962.73
2016-08-04T12:18:54.800Z,962.71
2016-08-04T12:19:54.778Z,962.68
2016-08-04T12:20:54.759Z,962.67
2016-08-04T12:21:54.755Z,962.7
2016-08-04T12:22:54.712Z,962.69
2016-08-04T12:23:54.690Z,962.7
2016-08-04T12:24:54.667Z,962.67
2016-08-04T12:25:54.645Z,962.68
2016-08-04T12:26:54.625Z,962.65
2016-08-04T12:27:54.600Z,962.65
2016-08-04T12:28:54.577Z,962.6
2016-08-04T12:29:54.553Z,962.57
2016-08-04T12:30:54.533Z,962.58
2016-08-04T12:31:54.510Z,962.58
2016-08-04T12:32:54.488Z,962.56
2016-08-04T12:33:54.463Z,962.54
2016-08-04T12:34:54.442Z,962.53